sensor_id;sensor_type;location;lat;lon;timestamp;P1;durP1;ratioP1;P2;durP2;ratioP2
15476;SDS011;7840;42.702;23.296;2022-07-26T00:02:05;15.18;;;13.80;;
15476;SDS011;7840;42.702;23.296;2022-07-26T00:04:53;15.15;;;13.85;;
15476;SDS011;7840;42.702;23.296;2022-07-26T00:07:21;15.48;;;14.00;;
15476;SDS011;7840;42.702;23.296;2022-07-26T00:09:48;15.50;;;14.30;;
15476;SDS011;7840;42.702;23.296;2022-07-26T00:12:16;15.45;;;14.05;;
15476;SDS011;7840;42.702;23.296;2022-07-26T00:14:47;15.20;;;13.70;;
15476;SDS011;7840;42.702;23.296;2022-07-26T00:17:15;15.32;;;14.02;;
15476;SDS011;7840;42.702;23.296;2022-07-26T00:19:42;14.23;;;13.07;;
15476;SDS011;7840;42.702;23.296;2022-07-26T00:22:17;15.93;;;14.48;;
15476;SDS011;7840;42.702;23.296;2022-07-26T00:25:00;15.57;;;14.07;;
15476;SDS011;7840;42.702;23.296;2022-07-26T00:27:58;15.00;;;13.57;;
15476;SDS011;7840;42.702;23.296;2022-07-26T00:30:26;14.48;;;13.23;;
15476;SDS011;7840;42.702;23.296;2022-07-26T00:32:54;15.32;;;14.00;;
15476;SDS011;7840;42.702;23.296;2022-07-26T00:35:22;14.63;;;13.43;;
15476;SDS011;7840;42.702;23.296;2022-07-26T00:37:52;15.40;;;14.02;;
15476;SDS011;7840;42.702;23.296;2022-07-26T00:40:19;15.25;;;14.00;;
15476;SDS011;7840;42.702;23.296;2022-07-26T00:42:47;15.50;;;14.20;;
15476;SDS011;7840;42.702;23.296;2022-07-26T00:45:15;15.13;;;13.73;;
15476;SDS011;7840;42.702;23.296;2022-07-26T00:47:43;14.70;;;13.50;;
15476;SDS011;7840;42.702;23.296;2022-07-26T00:50:12;14.40;;;13.10;;
15476;SDS011;7840;42.702;23.296;2022-07-26T00:52:41;15.55;;;14.25;;
15476;SDS011;7840;42.702;23.296;2022-07-26T00:55:11;14.93;;;13.38;;
15476;SDS011;7840;42.702;23.296;2022-07-26T00:57:39;15.07;;;13.45;;
15476;SDS011;7840;42.702;23.296;2022-07-26T01:00:08;15.07;;;13.63;;
15476;SDS011;7840;42.702;23.296;2022-07-26T01:02:37;15.48;;;14.13;;
15476;SDS011;7840;42.702;23.296;2022-07-26T01:05:06;15.52;;;14.30;;
15476;SDS011;7840;42.702;23.296;2022-07-26T01:07:34;14.70;;;13.50;;
15476;SDS011;7840;42.702;23.296;2022-07-26T01:10:04;15.18;;;13.77;;
15476;SDS011;7840;42.702;23.296;2022-07-26T01:12:37;15.27;;;14.07;;
15476;SDS011;7840;42.702;23.296;2022-07-26T01:15:05;15.93;;;14.48;;
15476;SDS011;7840;42.702;23.296;2022-07-26T01:17:40;16.00;;;14.60;;
15476;SDS011;7840;42.702;23.296;2022-07-26T01:20:08;15.98;;;14.63;;
15476;SDS011;7840;42.702;23.296;2022-07-26T01:22:39;15.68;;;14.38;;
15476;SDS011;7840;42.702;23.296;2022-07-26T01:25:07;16.05;;;14.65;;
15476;SDS011;7840;42.702;23.296;2022-07-26T01:27:35;16.30;;;14.77;;
15476;SDS011;7840;42.702;23.296;2022-07-26T01:30:05;15.55;;;14.32;;
15476;SDS011;7840;42.702;23.296;2022-07-26T01:32:34;15.60;;;14.18;;
15476;SDS011;7840;42.702;23.296;2022-07-26T01:35:02;15.88;;;14.48;;
15476;SDS011;7840;42.702;23.296;2022-07-26T01:37:30;15.75;;;14.45;;
15476;SDS011;7840;42.702;23.296;2022-07-26T01:39:59;16.52;;;15.10;;
15476;SDS011;7840;42.702;23.296;2022-07-26T01:42:27;15.77;;;14.48;;
15476;SDS011;7840;42.702;23.296;2022-07-26T01:44:55;16.02;;;14.48;;
15476;SDS011;7840;42.702;23.296;2022-07-26T01:47:22;16.23;;;14.93;;
15476;SDS011;7840;42.702;23.296;2022-07-26T01:49:50;15.25;;;13.95;;
15476;SDS011;7840;42.702;23.296;2022-07-26T01:52:18;15.80;;;14.38;;
15476;SDS011;7840;42.702;23.296;2022-07-26T01:54:45;16.17;;;14.63;;
15476;SDS011;7840;42.702;23.296;2022-07-26T01:57:15;15.52;;;14.23;;
15476;SDS011;7840;42.702;23.296;2022-07-26T01:59:43;16.38;;;14.98;;
15476;SDS011;7840;42.702;23.296;2022-07-26T02:02:11;15.82;;;14.23;;
15476;SDS011;7840;42.702;23.296;2022-07-26T02:04:40;16.08;;;14.85;;
15476;SDS011;7840;42.702;23.296;2022-07-26T02:07:26;15.55;;;14.27;;
15476;SDS011;7840;42.702;23.296;2022-07-26T02:09:55;15.02;;;13.82;;
15476;SDS011;7840;42.702;23.296;2022-07-26T02:12:24;15.95;;;14.63;;
15476;SDS011;7840;42.702;23.296;2022-07-26T02:14:52;16.13;;;14.43;;
15476;SDS011;7840;42.702;23.296;2022-07-26T02:17:22;15.65;;;14.30;;
15476;SDS011;7840;42.702;23.296;2022-07-26T02:19:50;15.77;;;14.20;;
15476;SDS011;7840;42.702;23.296;2022-07-26T02:22:17;15.88;;;14.32;;
15476;SDS011;7840;42.702;23.296;2022-07-26T02:24:57;16.13;;;14.65;;
15476;SDS011;7840;42.702;23.296;2022-07-26T02:27:27;15.02;;;13.82;;
15476;SDS011;7840;42.702;23.296;2022-07-26T02:30:10;16.40;;;14.70;;
15476;SDS011;7840;42.702;23.296;2022-07-26T02:32:38;16.15;;;14.85;;
15476;SDS011;7840;42.702;23.296;2022-07-26T02:37:35;17.77;;;16.00;;
15476;SDS011;7840;42.702;23.296;2022-07-26T02:40:04;16.73;;;15.02;;
15476;SDS011;7840;42.702;23.296;2022-07-26T02:42:34;16.48;;;14.98;;
15476;SDS011;7840;42.702;23.296;2022-07-26T02:45:02;16.95;;;15.35;;
15476;SDS011;7840;42.702;23.296;2022-07-26T02:47:30;16.50;;;15.00;;
15476;SDS011;7840;42.702;23.296;2022-07-26T02:49:58;15.93;;;14.63;;
15476;SDS011;7840;42.702;23.296;2022-07-26T02:52:26;16.85;;;15.25;;
15476;SDS011;7840;42.702;23.296;2022-07-26T02:54:53;16.60;;;15.10;;
15476;SDS011;7840;42.702;23.296;2022-07-26T02:57:22;17.33;;;15.75;;
15476;SDS011;7840;42.702;23.296;2022-07-26T02:59:51;17.10;;;15.50;;
15476;SDS011;7840;42.702;23.296;2022-07-26T03:02:18;16.00;;;14.60;;
15476;SDS011;7840;42.702;23.296;2022-07-26T03:04:46;16.02;;;14.52;;
15476;SDS011;7840;42.702;23.296;2022-07-26T03:07:17;17.00;;;15.32;;
15476;SDS011;7840;42.702;23.296;2022-07-26T03:09:44;16.27;;;14.93;;
15476;SDS011;7840;42.702;23.296;2022-07-26T03:12:15;17.70;;;15.90;;
15476;SDS011;7840;42.702;23.296;2022-07-26T03:14:55;16.98;;;15.30;;
15476;SDS011;7840;42.702;23.296;2022-07-26T03:17:23;16.90;;;15.40;;
15476;SDS011;7840;42.702;23.296;2022-07-26T03:19:52;17.45;;;15.70;;
15476;SDS011;7840;42.702;23.296;2022-07-26T03:22:20;16.33;;;14.93;;
15476;SDS011;7840;42.702;23.296;2022-07-26T03:24:48;16.42;;;14.93;;
15476;SDS011;7840;42.702;23.296;2022-07-26T03:27:17;19.02;;;17.25;;
15476;SDS011;7840;42.702;23.296;2022-07-26T03:29:45;17.23;;;15.82;;
15476;SDS011;7840;42.702;23.296;2022-07-26T03:32:14;18.48;;;16.63;;
15476;SDS011;7840;42.702;23.296;2022-07-26T03:34:54;18.17;;;16.38;;
15476;SDS011;7840;42.702;23.296;2022-07-26T03:37:22;18.55;;;15.23;;
15476;SDS011;7840;42.702;23.296;2022-07-26T03:39:50;15.30;;;13.90;;
15476;SDS011;7840;42.702;23.296;2022-07-26T03:42:17;17.17;;;13.43;;
15476;SDS011;7840;42.702;23.296;2022-07-26T03:44:45;16.20;;;13.27;;
15476;SDS011;7840;42.702;23.296;2022-07-26T03:47:14;14.00;;;12.65;;
15476;SDS011;7840;42.702;23.296;2022-07-26T03:49:42;14.43;;;13.02;;
15476;SDS011;7840;42.702;23.296;2022-07-26T03:52:09;14.57;;;13.18;;
15476;SDS011;7840;42.702;23.296;2022-07-26T03:54:37;14.43;;;12.88;;
15476;SDS011;7840;42.702;23.296;2022-07-26T03:57:05;14.18;;;12.73;;
15476;SDS011;7840;42.702;23.296;2022-07-26T03:59:31;15.27;;;13.88;;
15476;SDS011;7840;42.702;23.296;2022-07-26T04:01:59;16.52;;;15.02;;
15476;SDS011;7840;42.702;23.296;2022-07-26T04:04:28;17.40;;;15.55;;
15476;SDS011;7840;42.702;23.296;2022-07-26T04:06:56;17.70;;;15.20;;
15476;SDS011;7840;42.702;23.296;2022-07-26T04:09:23;17.50;;;15.98;;
15476;SDS011;7840;42.702;23.296;2022-07-26T04:11:51;17.88;;;16.20;;
15476;SDS011;7840;42.702;23.296;2022-07-26T04:14:18;17.38;;;15.85;;
15476;SDS011;7840;42.702;23.296;2022-07-26T04:16:46;17.08;;;15.52;;
15476;SDS011;7840;42.702;23.296;2022-07-26T04:19:14;18.13;;;16.58;;
15476;SDS011;7840;42.702;23.296;2022-07-26T04:21:42;19.08;;;17.13;;
15476;SDS011;7840;42.702;23.296;2022-07-26T04:24:10;18.88;;;16.88;;
15476;SDS011;7840;42.702;23.296;2022-07-26T04:26:38;18.80;;;16.95;;
15476;SDS011;7840;42.702;23.296;2022-07-26T04:29:06;18.98;;;17.25;;
15476;SDS011;7840;42.702;23.296;2022-07-26T04:31:33;18.65;;;16.95;;
15476;SDS011;7840;42.702;23.296;2022-07-26T04:34:01;18.92;;;17.33;;
15476;SDS011;7840;42.702;23.296;2022-07-26T04:36:28;18.88;;;17.17;;
15476;SDS011;7840;42.702;23.296;2022-07-26T04:38:57;18.20;;;16.45;;
15476;SDS011;7840;42.702;23.296;2022-07-26T04:41:26;19.45;;;17.63;;
15476;SDS011;7840;42.702;23.296;2022-07-26T04:43:54;19.60;;;16.25;;
15476;SDS011;7840;42.702;23.296;2022-07-26T04:46:34;18.63;;;17.00;;
15476;SDS011;7840;42.702;23.296;2022-07-26T04:49:04;17.90;;;16.13;;
15476;SDS011;7840;42.702;23.296;2022-07-26T04:51:32;20.00;;;17.08;;
15476;SDS011;7840;42.702;23.296;2022-07-26T04:54:01;18.95;;;17.02;;
15476;SDS011;7840;42.702;23.296;2022-07-26T04:56:29;19.98;;;16.60;;
15476;SDS011;7840;42.702;23.296;2022-07-26T04:58:56;18.95;;;17.20;;
15476;SDS011;7840;42.702;23.296;2022-07-26T05:01:24;19.00;;;17.27;;
15476;SDS011;7840;42.702;23.296;2022-07-26T05:03:52;19.23;;;17.42;;
15476;SDS011;7840;42.702;23.296;2022-07-26T05:06:36;18.48;;;16.45;;
15476;SDS011;7840;42.702;23.296;2022-07-26T05:09:05;21.42;;;19.45;;
15476;SDS011;7840;42.702;23.296;2022-07-26T05:11:34;25.30;;;20.20;;
15476;SDS011;7840;42.702;23.296;2022-07-26T05:14:04;21.10;;;19.02;;
15476;SDS011;7840;42.702;23.296;2022-07-26T05:16:32;21.27;;;19.08;;
15476;SDS011;7840;42.702;23.296;2022-07-26T05:19:12;21.92;;;19.70;;
15476;SDS011;7840;42.702;23.296;2022-07-26T05:21:40;22.48;;;20.27;;
15476;SDS011;7840;42.702;23.296;2022-07-26T05:24:10;22.10;;;19.88;;
15476;SDS011;7840;42.702;23.296;2022-07-26T05:26:38;20.65;;;18.80;;
15476;SDS011;7840;42.702;23.296;2022-07-26T05:29:13;20.42;;;18.58;;
15476;SDS011;7840;42.702;23.296;2022-07-26T05:31:40;19.73;;;18.00;;
15476;SDS011;7840;42.702;23.296;2022-07-26T05:34:08;22.05;;;19.33;;
15476;SDS011;7840;42.702;23.296;2022-07-26T05:36:36;21.15;;;19.08;;
15476;SDS011;7840;42.702;23.296;2022-07-26T05:39:03;20.95;;;18.75;;
15476;SDS011;7840;42.702;23.296;2022-07-26T05:41:32;21.95;;;19.67;;
15476;SDS011;7840;42.702;23.296;2022-07-26T05:44:01;19.48;;;17.58;;
15476;SDS011;7840;42.702;23.296;2022-07-26T05:46:31;20.58;;;18.35;;
15476;SDS011;7840;42.702;23.296;2022-07-26T05:48:58;19.33;;;17.30;;
15476;SDS011;7840;42.702;23.296;2022-07-26T05:51:26;22.38;;;18.88;;
15476;SDS011;7840;42.702;23.296;2022-07-26T05:54:06;22.67;;;19.33;;
15476;SDS011;7840;42.702;23.296;2022-07-26T05:56:36;21.13;;;18.80;;
15476;SDS011;7840;42.702;23.296;2022-07-26T05:59:04;24.00;;;19.83;;
15476;SDS011;7840;42.702;23.296;2022-07-26T06:01:31;23.23;;;20.77;;
15476;SDS011;7840;42.702;23.296;2022-07-26T06:04:02;20.48;;;18.33;;
15476;SDS011;7840;42.702;23.296;2022-07-26T06:06:34;21.65;;;19.45;;
15476;SDS011;7840;42.702;23.296;2022-07-26T06:09:02;21.63;;;17.98;;
15476;SDS011;7840;42.702;23.296;2022-07-26T06:11:32;19.67;;;17.60;;
15476;SDS011;7840;42.702;23.296;2022-07-26T06:14:04;26.15;;;18.45;;
15476;SDS011;7840;42.702;23.296;2022-07-26T06:16:40;20.15;;;18.25;;
15476;SDS011;7840;42.702;23.296;2022-07-26T06:19:08;20.33;;;18.20;;
15476;SDS011;7840;42.702;23.296;2022-07-26T06:21:42;21.58;;;17.27;;
15476;SDS011;7840;42.702;23.296;2022-07-26T06:24:11;28.13;;;19.38;;
15476;SDS011;7840;42.702;23.296;2022-07-26T06:26:40;24.02;;;17.02;;
15476;SDS011;7840;42.702;23.296;2022-07-26T06:29:14;25.90;;;18.40;;
15476;SDS011;7840;42.702;23.296;2022-07-26T06:31:42;23.90;;;18.45;;
15476;SDS011;7840;42.702;23.296;2022-07-26T06:34:10;26.52;;;18.55;;
15476;SDS011;7840;42.702;23.296;2022-07-26T06:36:38;19.17;;;17.15;;
15476;SDS011;7840;42.702;23.296;2022-07-26T06:39:09;23.50;;;16.63;;
15476;SDS011;7840;42.702;23.296;2022-07-26T06:41:38;20.80;;;16.13;;
15476;SDS011;7840;42.702;23.296;2022-07-26T06:44:06;23.67;;;16.40;;
15476;SDS011;7840;42.702;23.296;2022-07-26T06:46:35;24.70;;;16.88;;
15476;SDS011;7840;42.702;23.296;2022-07-26T06:49:03;24.90;;;15.52;;
15476;SDS011;7840;42.702;23.296;2022-07-26T06:51:34;24.83;;;16.73;;
15476;SDS011;7840;42.702;23.296;2022-07-26T06:54:02;21.35;;;15.40;;
15476;SDS011;7840;42.702;23.296;2022-07-26T06:56:30;18.85;;;15.00;;
15476;SDS011;7840;42.702;23.296;2022-07-26T06:58:57;17.95;;;14.93;;
15476;SDS011;7840;42.702;23.296;2022-07-26T07:01:28;25.20;;;15.15;;
15476;SDS011;7840;42.702;23.296;2022-07-26T07:03:57;22.60;;;14.25;;
15476;SDS011;7840;42.702;23.296;2022-07-26T07:06:28;21.40;;;14.18;;
15476;SDS011;7840;42.702;23.296;2022-07-26T07:08:58;16.45;;;14.85;;
15476;SDS011;7840;42.702;23.296;2022-07-26T07:11:27;21.00;;;15.25;;
15476;SDS011;7840;42.702;23.296;2022-07-26T07:13:54;16.98;;;15.25;;
15476;SDS011;7840;42.702;23.296;2022-07-26T07:16:25;16.27;;;14.48;;
15476;SDS011;7840;42.702;23.296;2022-07-26T07:18:53;15.48;;;13.88;;
15476;SDS011;7840;42.702;23.296;2022-07-26T07:21:22;15.30;;;13.80;;
15476;SDS011;7840;42.702;23.296;2022-07-26T07:23:51;15.27;;;13.80;;
15476;SDS011;7840;42.702;23.296;2022-07-26T07:26:19;16.92;;;13.30;;
15476;SDS011;7840;42.702;23.296;2022-07-26T07:28:47;16.38;;;13.65;;
15476;SDS011;7840;42.702;23.296;2022-07-26T07:31:16;15.50;;;13.88;;
15476;SDS011;7840;42.702;23.296;2022-07-26T07:34:01;16.17;;;14.60;;
15476;SDS011;7840;42.702;23.296;2022-07-26T07:36:30;18.55;;;14.00;;
15476;SDS011;7840;42.702;23.296;2022-07-26T07:39:00;16.80;;;15.30;;
15476;SDS011;7840;42.702;23.296;2022-07-26T07:41:31;16.45;;;14.95;;
15476;SDS011;7840;42.702;23.296;2022-07-26T07:44:00;15.00;;;13.65;;
15476;SDS011;7840;42.702;23.296;2022-07-26T07:46:31;15.30;;;13.65;;
15476;SDS011;7840;42.702;23.296;2022-07-26T07:49:02;17.13;;;13.70;;
15476;SDS011;7840;42.702;23.296;2022-07-26T07:51:40;17.15;;;13.70;;
15476;SDS011;7840;42.702;23.296;2022-07-26T07:54:27;14.93;;;13.43;;
15476;SDS011;7840;42.702;23.296;2022-07-26T07:56:55;14.80;;;13.02;;
15476;SDS011;7840;42.702;23.296;2022-07-26T07:59:23;17.95;;;14.07;;
15476;SDS011;7840;42.702;23.296;2022-07-26T08:01:53;15.07;;;13.63;;
15476;SDS011;7840;42.702;23.296;2022-07-26T08:04:56;15.00;;;13.77;;
15476;SDS011;7840;42.702;23.296;2022-07-26T08:07:24;14.60;;;13.30;;
15476;SDS011;7840;42.702;23.296;2022-07-26T08:09:52;14.40;;;13.02;;
15476;SDS011;7840;42.702;23.296;2022-07-26T08:12:19;14.63;;;13.25;;
15476;SDS011;7840;42.702;23.296;2022-07-26T08:14:47;17.55;;;14.40;;
15476;SDS011;7840;42.702;23.296;2022-07-26T08:17:16;17.20;;;13.55;;
15476;SDS011;7840;42.702;23.296;2022-07-26T08:19:44;13.73;;;12.57;;
15476;SDS011;7840;42.702;23.296;2022-07-26T08:22:14;13.43;;;12.23;;
15476;SDS011;7840;42.702;23.296;2022-07-26T08:24:42;14.27;;;12.85;;
15476;SDS011;7840;42.702;23.296;2022-07-26T08:27:13;16.48;;;12.20;;
15476;SDS011;7840;42.702;23.296;2022-07-26T08:29:41;14.32;;;12.85;;
15476;SDS011;7840;42.702;23.296;2022-07-26T08:32:08;14.88;;;13.32;;
15476;SDS011;7840;42.702;23.296;2022-07-26T08:34:36;14.85;;;12.90;;
15476;SDS011;7840;42.702;23.296;2022-07-26T08:37:04;13.65;;;12.35;;
15476;SDS011;7840;42.702;23.296;2022-07-26T08:39:33;13.95;;;12.77;;
15476;SDS011;7840;42.702;23.296;2022-07-26T08:42:01;14.98;;;13.52;;
15476;SDS011;7840;42.702;23.296;2022-07-26T08:44:29;14.38;;;13.02;;
15476;SDS011;7840;42.702;23.296;2022-07-26T08:47:11;14.48;;;13.07;;
15476;SDS011;7840;42.702;23.296;2022-07-26T08:49:40;18.50;;;12.80;;
15476;SDS011;7840;42.702;23.296;2022-07-26T08:52:13;12.77;;;11.60;;
15476;SDS011;7840;42.702;23.296;2022-07-26T08:54:47;13.18;;;12.07;;
15476;SDS011;7840;42.702;23.296;2022-07-26T08:57:16;12.93;;;11.77;;
15476;SDS011;7840;42.702;23.296;2022-07-26T08:59:44;16.40;;;11.95;;
15476;SDS011;7840;42.702;23.296;2022-07-26T09:02:38;12.77;;;11.70;;
15476;SDS011;7840;42.702;23.296;2022-07-26T09:05:12;13.25;;;11.73;;
15476;SDS011;7840;42.702;23.296;2022-07-26T09:07:42;12.50;;;11.50;;
15476;SDS011;7840;42.702;23.296;2022-07-26T09:10:11;12.15;;;10.93;;
15476;SDS011;7840;42.702;23.296;2022-07-26T09:12:40;12.30;;;11.20;;
15476;SDS011;7840;42.702;23.296;2022-07-26T09:15:24;13.60;;;11.57;;
15476;SDS011;7840;42.702;23.296;2022-07-26T09:17:56;14.85;;;11.63;;
15476;SDS011;7840;42.702;23.296;2022-07-26T09:20:45;12.35;;;10.90;;
15476;SDS011;7840;42.702;23.296;2022-07-26T09:23:13;13.20;;;12.10;;
15476;SDS011;7840;42.702;23.296;2022-07-26T09:25:43;12.57;;;11.38;;
15476;SDS011;7840;42.702;23.296;2022-07-26T09:28:20;12.32;;;11.13;;
15476;SDS011;7840;42.702;23.296;2022-07-26T09:30:53;11.30;;;10.30;;
15476;SDS011;7840;42.702;23.296;2022-07-26T09:33:26;13.25;;;10.70;;
15476;SDS011;7840;42.702;23.296;2022-07-26T09:36:10;11.65;;;10.55;;
15476;SDS011;7840;42.702;23.296;2022-07-26T09:38:39;12.07;;;10.88;;
15476;SDS011;7840;42.702;23.296;2022-07-26T09:41:19;12.52;;;11.38;;
15476;SDS011;7840;42.702;23.296;2022-07-26T09:43:48;11.93;;;10.65;;
15476;SDS011;7840;42.702;23.296;2022-07-26T09:46:16;12.27;;;11.02;;
15476;SDS011;7840;42.702;23.296;2022-07-26T09:48:44;11.50;;;10.50;;
15476;SDS011;7840;42.702;23.296;2022-07-26T09:51:12;11.93;;;10.82;;
15476;SDS011;7840;42.702;23.296;2022-07-26T09:53:43;11.80;;;10.35;;
15476;SDS011;7840;42.702;23.296;2022-07-26T09:56:11;10.57;;;9.68;;
15476;SDS011;7840;42.702;23.296;2022-07-26T09:58:41;10.40;;;9.50;;
15476;SDS011;7840;42.702;23.296;2022-07-26T10:01:09;11.50;;;9.98;;
15476;SDS011;7840;42.702;23.296;2022-07-26T10:03:40;11.38;;;10.20;;
15476;SDS011;7840;42.702;23.296;2022-07-26T10:06:10;11.35;;;10.27;;
15476;SDS011;7840;42.702;23.296;2022-07-26T10:08:37;10.23;;;9.40;;
15476;SDS011;7840;42.702;23.296;2022-07-26T10:11:06;12.65;;;10.32;;
15476;SDS011;7840;42.702;23.296;2022-07-26T10:13:35;12.73;;;9.82;;
15476;SDS011;7840;42.702;23.296;2022-07-26T10:16:05;10.35;;;9.50;;
15476;SDS011;7840;42.702;23.296;2022-07-26T10:18:53;10.30;;;9.60;;
15476;SDS011;7840;42.702;23.296;2022-07-26T10:21:22;10.35;;;9.55;;
15476;SDS011;7840;42.702;23.296;2022-07-26T10:23:52;11.43;;;10.40;;
15476;SDS011;7840;42.702;23.296;2022-07-26T10:26:37;11.13;;;9.75;;
15476;SDS011;7840;42.702;23.296;2022-07-26T10:34:58;10.82;;;9.60;;
15476;SDS011;7840;42.702;23.296;2022-07-26T10:37:26;10.98;;;9.98;;
15476;SDS011;7840;42.702;23.296;2022-07-26T10:42:41;10.63;;;9.77;;
15476;SDS011;7840;42.702;23.296;2022-07-26T10:45:16;10.75;;;9.27;;
15476;SDS011;7840;42.702;23.296;2022-07-26T10:50:44;9.23;;;8.48;;
15476;SDS011;7840;42.702;23.296;2022-07-26T10:53:20;9.38;;;8.57;;
15476;SDS011;7840;42.702;23.296;2022-07-26T10:56:01;9.45;;;8.68;;
15476;SDS011;7840;42.702;23.296;2022-07-26T10:58:38;9.50;;;8.70;;
15476;SDS011;7840;42.702;23.296;2022-07-26T11:01:08;12.77;;;8.70;;
15476;SDS011;7840;42.702;23.296;2022-07-26T11:03:38;11.70;;;9.63;;
15476;SDS011;7840;42.702;23.296;2022-07-26T11:08:34;9.48;;;8.63;;
15476;SDS011;7840;42.702;23.296;2022-07-26T11:11:01;9.77;;;8.93;;
15476;SDS011;7840;42.702;23.296;2022-07-26T11:13:30;9.60;;;8.80;;
15476;SDS011;7840;42.702;23.296;2022-07-26T11:16:01;11.48;;;8.60;;
15476;SDS011;7840;42.702;23.296;2022-07-26T11:18:39;9.45;;;8.43;;
15476;SDS011;7840;42.702;23.296;2022-07-26T11:21:08;10.13;;;9.23;;
15476;SDS011;7840;42.702;23.296;2022-07-26T11:23:40;8.50;;;7.80;;
15476;SDS011;7840;42.702;23.296;2022-07-26T11:26:10;8.38;;;7.65;;
15476;SDS011;7840;42.702;23.296;2022-07-26T11:28:55;9.18;;;8.30;;
15476;SDS011;7840;42.702;23.296;2022-07-26T11:31:32;8.73;;;7.93;;
15476;SDS011;7840;42.702;23.296;2022-07-26T11:34:04;8.40;;;7.70;;
15476;SDS011;7840;42.702;23.296;2022-07-26T11:36:33;8.68;;;7.90;;
15476;SDS011;7840;42.702;23.296;2022-07-26T11:39:03;7.75;;;7.13;;
15476;SDS011;7840;42.702;23.296;2022-07-26T11:41:32;8.13;;;7.32;;
15476;SDS011;7840;42.702;23.296;2022-07-26T11:44:01;7.38;;;6.78;;
15476;SDS011;7840;42.702;23.296;2022-07-26T11:46:36;7.35;;;6.78;;
15476;SDS011;7840;42.702;23.296;2022-07-26T11:49:14;7.45;;;6.75;;
15476;SDS011;7840;42.702;23.296;2022-07-26T11:51:49;7.20;;;6.60;;
15476;SDS011;7840;42.702;23.296;2022-07-26T11:54:42;8.38;;;7.65;;
15476;SDS011;7840;42.702;23.296;2022-07-26T11:57:12;8.18;;;7.47;;
15476;SDS011;7840;42.702;23.296;2022-07-26T11:59:45;9.70;;;8.85;;
15476;SDS011;7840;42.702;23.296;2022-07-26T12:02:15;7.40;;;6.80;;
15476;SDS011;7840;42.702;23.296;2022-07-26T12:07:51;7.68;;;6.82;;
15476;SDS011;7840;42.702;23.296;2022-07-26T12:10:27;7.75;;;6.35;;
15476;SDS011;7840;42.702;23.296;2022-07-26T12:13:08;7.53;;;6.85;;
15476;SDS011;7840;42.702;23.296;2022-07-26T12:15:43;8.13;;;7.43;;
15476;SDS011;7840;42.702;23.296;2022-07-26T12:18:19;8.15;;;7.38;;
15476;SDS011;7840;42.702;23.296;2022-07-26T12:20:56;9.20;;;8.38;;
15476;SDS011;7840;42.702;23.296;2022-07-26T12:23:41;10.10;;;9.05;;
15476;SDS011;7840;42.702;23.296;2022-07-26T12:26:20;10.40;;;9.48;;
15476;SDS011;7840;42.702;23.296;2022-07-26T12:28:49;10.63;;;8.98;;
15476;SDS011;7840;42.702;23.296;2022-07-26T12:31:20;10.18;;;9.18;;
15476;SDS011;7840;42.702;23.296;2022-07-26T12:33:53;9.32;;;8.10;;
15476;SDS011;7840;42.702;23.296;2022-07-26T12:36:26;11.68;;;8.85;;
15476;SDS011;7840;42.702;23.296;2022-07-26T12:38:53;9.65;;;8.73;;
15476;SDS011;7840;42.702;23.296;2022-07-26T12:41:31;10.52;;;9.48;;
15476;SDS011;7840;42.702;23.296;2022-07-26T12:44:01;9.00;;;8.30;;
15476;SDS011;7840;42.702;23.296;2022-07-26T12:46:30;9.75;;;8.95;;
15476;SDS011;7840;42.702;23.296;2022-07-26T12:48:58;9.75;;;8.93;;
15476;SDS011;7840;42.702;23.296;2022-07-26T12:51:27;10.00;;;9.13;;
15476;SDS011;7840;42.702;23.296;2022-07-26T12:53:55;9.98;;;9.00;;
15476;SDS011;7840;42.702;23.296;2022-07-26T12:56:23;7.55;;;6.85;;
15476;SDS011;7840;42.702;23.296;2022-07-26T12:58:51;9.70;;;8.63;;
15476;SDS011;7840;42.702;23.296;2022-07-26T13:01:25;10.07;;;8.88;;
15476;SDS011;7840;42.702;23.296;2022-07-26T13:03:53;10.68;;;8.95;;
15476;SDS011;7840;42.702;23.296;2022-07-26T13:06:21;9.90;;;9.10;;
15476;SDS011;7840;42.702;23.296;2022-07-26T13:08:48;10.23;;;9.35;;
15476;SDS011;7840;42.702;23.296;2022-07-26T13:11:16;10.15;;;9.20;;
15476;SDS011;7840;42.702;23.296;2022-07-26T13:13:43;11.55;;;8.55;;
15476;SDS011;7840;42.702;23.296;2022-07-26T13:16:11;10.00;;;9.10;;
15476;SDS011;7840;42.702;23.296;2022-07-26T13:18:39;10.45;;;9.30;;
15476;SDS011;7840;42.702;23.296;2022-07-26T13:21:06;9.63;;;8.63;;
15476;SDS011;7840;42.702;23.296;2022-07-26T13:23:34;10.25;;;9.45;;
15476;SDS011;7840;42.702;23.296;2022-07-26T13:26:13;9.57;;;8.73;;
15476;SDS011;7840;42.702;23.296;2022-07-26T13:28:41;8.00;;;7.35;;
15476;SDS011;7840;42.702;23.296;2022-07-26T13:31:08;8.63;;;7.93;;
15476;SDS011;7840;42.702;23.296;2022-07-26T13:33:36;9.73;;;8.88;;
15476;SDS011;7840;42.702;23.296;2022-07-26T13:36:04;8.85;;;8.25;;
15476;SDS011;7840;42.702;23.296;2022-07-26T13:38:38;8.88;;;8.25;;
15476;SDS011;7840;42.702;23.296;2022-07-26T13:41:08;12.27;;;9.02;;
15476;SDS011;7840;42.702;23.296;2022-07-26T13:43:36;9.45;;;8.45;;
15476;SDS011;7840;42.702;23.296;2022-07-26T13:46:03;9.35;;;8.40;;
15476;SDS011;7840;42.702;23.296;2022-07-26T13:48:31;10.07;;;9.00;;
15476;SDS011;7840;42.702;23.296;2022-07-26T13:50:59;9.43;;;8.63;;
15476;SDS011;7840;42.702;23.296;2022-07-26T13:53:26;9.88;;;8.52;;
15476;SDS011;7840;42.702;23.296;2022-07-26T13:55:55;8.93;;;7.88;;
15476;SDS011;7840;42.702;23.296;2022-07-26T13:58:24;8.07;;;7.50;;
15476;SDS011;7840;42.702;23.296;2022-07-26T14:00:51;9.95;;;7.60;;
15476;SDS011;7840;42.702;23.296;2022-07-26T14:03:19;9.10;;;8.23;;
15476;SDS011;7840;42.702;23.296;2022-07-26T14:05:47;9.77;;;7.75;;
15476;SDS011;7840;42.702;23.296;2022-07-26T14:08:14;9.05;;;8.32;;
15476;SDS011;7840;42.702;23.296;2022-07-26T14:10:42;8.63;;;7.88;;
15476;SDS011;7840;42.702;23.296;2022-07-26T14:13:31;8.73;;;7.95;;
15476;SDS011;7840;42.702;23.296;2022-07-26T14:16:02;8.77;;;8.07;;
15476;SDS011;7840;42.702;23.296;2022-07-26T14:18:29;9.75;;;8.45;;
15476;SDS011;7840;42.702;23.296;2022-07-26T14:21:03;9.20;;;8.40;;
15476;SDS011;7840;42.702;23.296;2022-07-26T14:23:32;8.23;;;7.60;;
15476;SDS011;7840;42.702;23.296;2022-07-26T14:25:59;13.43;;;8.50;;
15476;SDS011;7840;42.702;23.296;2022-07-26T14:28:32;9.30;;;8.50;;
15476;SDS011;7840;42.702;23.296;2022-07-26T14:31:12;9.45;;;8.00;;
15476;SDS011;7840;42.702;23.296;2022-07-26T14:33:40;8.75;;;8.05;;
15476;SDS011;7840;42.702;23.296;2022-07-26T14:36:08;8.23;;;7.60;;
15476;SDS011;7840;42.702;23.296;2022-07-26T14:38:40;8.45;;;7.82;;
15476;SDS011;7840;42.702;23.296;2022-07-26T14:41:08;8.75;;;8.05;;
15476;SDS011;7840;42.702;23.296;2022-07-26T14:43:38;8.23;;;7.53;;
15476;SDS011;7840;42.702;23.296;2022-07-26T14:46:07;9.15;;;8.25;;
15476;SDS011;7840;42.702;23.296;2022-07-26T14:48:35;9.88;;;8.10;;
15476;SDS011;7840;42.702;23.296;2022-07-26T14:51:03;9.15;;;8.30;;
15476;SDS011;7840;42.702;23.296;2022-07-26T14:53:31;11.10;;;7.70;;
15476;SDS011;7840;42.702;23.296;2022-07-26T14:55:58;7.90;;;7.40;;
15476;SDS011;7840;42.702;23.296;2022-07-26T14:58:26;8.95;;;8.13;;
15476;SDS011;7840;42.702;23.296;2022-07-26T15:00:55;8.75;;;7.95;;
15476;SDS011;7840;42.702;23.296;2022-07-26T15:03:23;8.18;;;7.57;;
15476;SDS011;7840;42.702;23.296;2022-07-26T15:05:51;8.65;;;7.95;;
15476;SDS011;7840;42.702;23.296;2022-07-26T15:08:18;8.05;;;7.50;;